sensor_id;sensor_type;location;lat;lon;timestamp;P1;durP1;ratioP1;P2;durP2;ratioP2
78346;SDS011;67803;41.330;69.282;2023-03-01T00:01:25;26.08;;;2.50;;
78346;SDS011;67803;41.330;69.282;2023-03-01T00:03:56;17.25;;;2.72;;
78346;SDS011;67803;41.330;69.282;2023-03-01T00:06:27;22.73;;;3.17;;
78346;SDS011;67803;41.330;69.282;2023-03-01T00:08:58;24.83;;;3.67;;
78346;SDS011;67803;41.330;69.282;2023-03-01T00:11:29;27.48;;;3.90;;
78346;SDS011;67803;41.330;69.282;2023-03-01T00:14:00;26.80;;;2.75;;
78346;SDS011;67803;41.330;69.282;2023-03-01T00:16:32;33.55;;;4.07;;
78346;SDS011;67803;41.330;69.282;2023-03-01T00:19:06;25.75;;;3.13;;
78346;SDS011;67803;41.330;69.282;2023-03-01T00:21:37;22.95;;;2.35;;
78346;SDS011;67803;41.330;69.282;2023-03-01T00:24:08;25.90;;;3.05;;
78346;SDS011;67803;41.330;69.282;2023-03-01T00:26:38;28.55;;;2.47;;
78346;SDS011;67803;41.330;69.282;2023-03-01T00:29:09;19.05;;;2.55;;
78346;SDS011;67803;41.330;69.282;2023-03-01T00:31:40;19.50;;;2.55;;
78346;SDS011;67803;41.330;69.282;2023-03-01T00:34:10;23.75;;;2.67;;
78346;SDS011;67803;41.330;69.282;2023-03-01T00:36:41;18.17;;;2.20;;
78346;SDS011;67803;41.330;69.282;2023-03-01T00:39:12;17.65;;;1.95;;
78346;SDS011;67803;41.330;69.282;2023-03-01T00:41:43;20.08;;;2.22;;
78346;SDS011;67803;41.330;69.282;2023-03-01T00:44:14;33.00;;;2.80;;
78346;SDS011;67803;41.330;69.282;2023-03-01T00:46:44;20.73;;;2.90;;
78346;SDS011;67803;41.330;69.282;2023-03-01T00:49:15;25.38;;;1.95;;
78346;SDS011;67803;41.330;69.282;2023-03-01T00:51:45;25.70;;;2.88;;
78346;SDS011;67803;41.330;69.282;2023-03-01T00:54:16;13.77;;;2.20;;
78346;SDS011;67803;41.330;69.282;2023-03-01T00:56:46;23.65;;;2.75;;
78346;SDS011;67803;41.330;69.282;2023-03-01T00:59:17;31.88;;;3.78;;
78346;SDS011;67803;41.330;69.282;2023-03-01T01:01:47;26.30;;;2.72;;
78346;SDS011;67803;41.330;69.282;2023-03-01T01:04:18;22.98;;;2.55;;
78346;SDS011;67803;41.330;69.282;2023-03-01T01:06:49;18.05;;;2.53;;
78346;SDS011;67803;41.330;69.282;2023-03-01T01:09:19;25.98;;;2.58;;
78346;SDS011;67803;41.330;69.282;2023-03-01T01:11:50;33.17;;;4.35;;
78346;SDS011;67803;41.330;69.282;2023-03-01T01:14:21;24.20;;;2.42;;
78346;SDS011;67803;41.330;69.282;2023-03-01T01:16:51;22.45;;;3.13;;
78346;SDS011;67803;41.330;69.282;2023-03-01T01:19:22;20.08;;;2.63;;
78346;SDS011;67803;41.330;69.282;2023-03-01T01:21:52;34.10;;;3.10;;
78346;SDS011;67803;41.330;69.282;2023-03-01T01:24:23;26.40;;;4.45;;
78346;SDS011;67803;41.330;69.282;2023-03-01T01:26:53;27.67;;;2.60;;
78346;SDS011;67803;41.330;69.282;2023-03-01T01:29:24;23.83;;;2.90;;
78346;SDS011;67803;41.330;69.282;2023-03-01T01:31:54;20.75;;;2.17;;
78346;SDS011;67803;41.330;69.282;2023-03-01T01:34:25;26.48;;;3.17;;
78346;SDS011;67803;41.330;69.282;2023-03-01T01:36:55;17.48;;;2.63;;
78346;SDS011;67803;41.330;69.282;2023-03-01T01:39:26;32.17;;;2.95;;
78346;SDS011;67803;41.330;69.282;2023-03-01T01:41:56;31.83;;;2.97;;
78346;SDS011;67803;41.330;69.282;2023-03-01T01:44:27;19.73;;;2.25;;
78346;SDS011;67803;41.330;69.282;2023-03-01T01:46:59;28.35;;;3.17;;
78346;SDS011;67803;41.330;69.282;2023-03-01T01:49:38;23.33;;;3.35;;
78346;SDS011;67803;41.330;69.282;2023-03-01T01:52:16;22.23;;;2.17;;
78346;SDS011;67803;41.330;69.282;2023-03-01T01:54:50;21.48;;;2.85;;
78346;SDS011;67803;41.330;69.282;2023-03-01T01:57:26;29.85;;;2.95;;
78346;SDS011;67803;41.330;69.282;2023-03-01T01:59:58;20.98;;;2.15;;
78346;SDS011;67803;41.330;69.282;2023-03-01T02:02:29;18.35;;;2.58;;
78346;SDS011;67803;41.330;69.282;2023-03-01T02:07:50;24.83;;;3.15;;
78346;SDS011;67803;41.330;69.282;2023-03-01T02:10:21;21.27;;;2.85;;
78346;SDS011;67803;41.330;69.282;2023-03-01T02:12:51;34.80;;;3.17;;
78346;SDS011;67803;41.330;69.282;2023-03-01T02:15:23;23.13;;;2.83;;
78346;SDS011;67803;41.330;69.282;2023-03-01T02:17:53;25.15;;;2.90;;
78346;SDS011;67803;41.330;69.282;2023-03-01T02:22:55;34.17;;;4.00;;
78346;SDS011;67803;41.330;69.282;2023-03-01T02:30:47;31.02;;;4.60;;
78346;SDS011;67803;41.330;69.282;2023-03-01T02:33:36;25.88;;;2.67;;
78346;SDS011;67803;41.330;69.282;2023-03-01T02:36:20;27.83;;;2.88;;
78346;SDS011;67803;41.330;69.282;2023-03-01T02:38:54;31.42;;;3.35;;
78346;SDS011;67803;41.330;69.282;2023-03-01T02:41:26;29.60;;;3.58;;
78346;SDS011;67803;41.330;69.282;2023-03-01T02:43:57;24.42;;;3.35;;
78346;SDS011;67803;41.330;69.282;2023-03-01T02:46:28;27.20;;;3.83;;
78346;SDS011;67803;41.330;69.282;2023-03-01T02:48:59;25.48;;;2.90;;
78346;SDS011;67803;41.330;69.282;2023-03-01T02:51:37;33.47;;;4.40;;
78346;SDS011;67803;41.330;69.282;2023-03-01T02:54:15;30.02;;;3.42;;
78346;SDS011;67803;41.330;69.282;2023-03-01T02:56:48;16.13;;;2.53;;
78346;SDS011;67803;41.330;69.282;2023-03-01T02:59:22;24.20;;;4.57;;
78346;SDS011;67803;41.330;69.282;2023-03-01T03:01:54;29.70;;;2.90;;
78346;SDS011;67803;41.330;69.282;2023-03-01T03:04:25;34.80;;;4.72;;
78346;SDS011;67803;41.330;69.282;2023-03-01T03:06:55;22.33;;;4.15;;
78346;SDS011;67803;41.330;69.282;2023-03-01T03:09:26;19.70;;;2.38;;
78346;SDS011;67803;41.330;69.282;2023-03-01T03:11:56;21.88;;;3.20;;
78346;SDS011;67803;41.330;69.282;2023-03-01T03:14:27;27.05;;;3.17;;
78346;SDS011;67803;41.330;69.282;2023-03-01T03:16:57;38.22;;;4.57;;
78346;SDS011;67803;41.330;69.282;2023-03-01T03:19:28;21.70;;;3.47;;
78346;SDS011;67803;41.330;69.282;2023-03-01T03:21:58;36.28;;;4.00;;
78346;SDS011;67803;41.330;69.282;2023-03-01T03:24:29;36.22;;;4.97;;
78346;SDS011;67803;41.330;69.282;2023-03-01T03:27:07;27.27;;;4.60;;
78346;SDS011;67803;41.330;69.282;2023-03-01T03:29:38;54.20;;;6.43;;
78346;SDS011;67803;41.330;69.282;2023-03-01T03:32:08;18.98;;;3.33;;
78346;SDS011;67803;41.330;69.282;2023-03-01T03:34:39;41.38;;;5.20;;
78346;SDS011;67803;41.330;69.282;2023-03-01T03:37:09;34.50;;;3.65;;
78346;SDS011;67803;41.330;69.282;2023-03-01T03:40:00;34.20;;;4.30;;
78346;SDS011;67803;41.330;69.282;2023-03-01T03:42:30;31.25;;;3.70;;
78346;SDS011;67803;41.330;69.282;2023-03-01T03:45:01;44.92;;;4.57;;
78346;SDS011;67803;41.330;69.282;2023-03-01T03:47:31;52.92;;;5.07;;
78346;SDS011;67803;41.330;69.282;2023-03-01T03:50:02;34.90;;;3.45;;
78346;SDS011;67803;41.330;69.282;2023-03-01T03:52:32;48.70;;;4.38;;
78346;SDS011;67803;41.330;69.282;2023-03-01T03:55:03;28.02;;;3.35;;
78346;SDS011;67803;41.330;69.282;2023-03-01T03:57:39;33.95;;;4.03;;
78346;SDS011;67803;41.330;69.282;2023-03-01T04:00:11;41.92;;;6.10;;
78346;SDS011;67803;41.330;69.282;2023-03-01T04:02:45;25.60;;;3.38;;
78346;SDS011;67803;41.330;69.282;2023-03-01T04:05:17;32.15;;;3.25;;
78346;SDS011;67803;41.330;69.282;2023-03-01T04:07:49;49.70;;;4.15;;
78346;SDS011;67803;41.330;69.282;2023-03-01T04:10:32;32.13;;;3.70;;
78346;SDS011;67803;41.330;69.282;2023-03-01T04:13:03;43.95;;;3.13;;
78346;SDS011;67803;41.330;69.282;2023-03-01T04:15:34;33.15;;;3.15;;
78346;SDS011;67803;41.330;69.282;2023-03-01T04:18:05;33.05;;;3.20;;
78346;SDS011;67803;41.330;69.282;2023-03-01T04:20:36;38.83;;;4.82;;
78346;SDS011;67803;41.330;69.282;2023-03-01T04:23:14;34.85;;;3.67;;
78346;SDS011;67803;41.330;69.282;2023-03-01T04:28:16;24.98;;;2.70;;
78346;SDS011;67803;41.330;69.282;2023-03-01T04:30:46;26.25;;;3.00;;
78346;SDS011;67803;41.330;69.282;2023-03-01T04:33:17;43.70;;;5.18;;
78346;SDS011;67803;41.330;69.282;2023-03-01T04:35:48;36.15;;;3.40;;
78346;SDS011;67803;41.330;69.282;2023-03-01T04:38:21;33.67;;;3.45;;
78346;SDS011;67803;41.330;69.282;2023-03-01T04:40:52;32.00;;;3.55;;
78346;SDS011;67803;41.330;69.282;2023-03-01T04:43:22;37.65;;;3.25;;
78346;SDS011;67803;41.330;69.282;2023-03-01T04:45:53;29.02;;;4.25;;
78346;SDS011;67803;41.330;69.282;2023-03-01T04:48:23;63.28;;;5.13;;
78346;SDS011;67803;41.330;69.282;2023-03-01T04:50:54;33.60;;;3.30;;
78346;SDS011;67803;41.330;69.282;2023-03-01T04:53:24;33.90;;;4.30;;
78346;SDS011;67803;41.330;69.282;2023-03-01T04:55:55;36.30;;;4.10;;
78346;SDS011;67803;41.330;69.282;2023-03-01T04:58:26;39.25;;;4.45;;
78346;SDS011;67803;41.330;69.282;2023-03-01T05:00:57;32.00;;;4.40;;
78346;SDS011;67803;41.330;69.282;2023-03-01T05:03:27;38.85;;;4.15;;
78346;SDS011;67803;41.330;69.282;2023-03-01T05:05:58;39.92;;;4.30;;
78346;SDS011;67803;41.330;69.282;2023-03-01T05:08:29;35.03;;;3.78;;
78346;SDS011;67803;41.330;69.282;2023-03-01T05:11:00;247.75;;;18.25;;
78346;SDS011;67803;41.330;69.282;2023-03-01T05:13:30;49.78;;;4.53;;
78346;SDS011;67803;41.330;69.282;2023-03-01T05:16:02;94.03;;;7.53;;
78346;SDS011;67803;41.330;69.282;2023-03-01T05:18:33;45.05;;;5.20;;
78346;SDS011;67803;41.330;69.282;2023-03-01T05:21:05;43.25;;;4.13;;
78346;SDS011;67803;41.330;69.282;2023-03-01T05:23:36;44.17;;;4.30;;
78346;SDS011;67803;41.330;69.282;2023-03-01T05:26:07;40.22;;;4.90;;
78346;SDS011;67803;41.330;69.282;2023-03-01T05:28:38;42.92;;;3.97;;
78346;SDS011;67803;41.330;69.282;2023-03-01T05:31:08;39.05;;;4.10;;
78346;SDS011;67803;41.330;69.282;2023-03-01T05:33:40;38.60;;;4.53;;
78346;SDS011;67803;41.330;69.282;2023-03-01T05:36:10;34.17;;;3.90;;
78346;SDS011;67803;41.330;69.282;2023-03-01T05:38:41;42.45;;;4.30;;
78346;SDS011;67803;41.330;69.282;2023-03-01T05:41:15;42.90;;;4.68;;
78346;SDS011;67803;41.330;69.282;2023-03-01T05:43:46;53.83;;;5.47;;
78346;SDS011;67803;41.330;69.282;2023-03-01T05:46:17;48.55;;;4.38;;
78346;SDS011;67803;41.330;69.282;2023-03-01T05:48:47;30.08;;;4.00;;
78346;SDS011;67803;41.330;69.282;2023-03-01T05:51:18;54.60;;;6.45;;
78346;SDS011;67803;41.330;69.282;2023-03-01T05:53:48;42.05;;;5.35;;
78346;SDS011;67803;41.330;69.282;2023-03-01T05:56:19;40.60;;;4.78;;
78346;SDS011;67803;41.330;69.282;2023-03-01T05:58:52;36.30;;;4.65;;
78346;SDS011;67803;41.330;69.282;2023-03-01T06:01:22;32.70;;;4.35;;
78346;SDS011;67803;41.330;69.282;2023-03-01T06:03:53;36.33;;;4.70;;
78346;SDS011;67803;41.330;69.282;2023-03-01T06:06:23;27.13;;;4.15;;
78346;SDS011;67803;41.330;69.282;2023-03-01T06:08:54;30.85;;;5.95;;
78346;SDS011;67803;41.330;69.282;2023-03-01T06:11:25;23.52;;;3.58;;
78346;SDS011;67803;41.330;69.282;2023-03-01T06:13:55;28.52;;;5.32;;
78346;SDS011;67803;41.330;69.282;2023-03-01T06:16:26;26.75;;;3.38;;
78346;SDS011;67803;41.330;69.282;2023-03-01T06:18:56;24.02;;;3.67;;
78346;SDS011;67803;41.330;69.282;2023-03-01T06:21:26;49.45;;;5.25;;
78346;SDS011;67803;41.330;69.282;2023-03-01T06:23:57;21.08;;;5.15;;
78346;SDS011;67803;41.330;69.282;2023-03-01T06:26:27;22.90;;;3.60;;
78346;SDS011;67803;41.330;69.282;2023-03-01T06:28:58;20.90;;;4.22;;
78346;SDS011;67803;41.330;69.282;2023-03-01T06:31:28;22.95;;;3.20;;
78346;SDS011;67803;41.330;69.282;2023-03-01T06:33:59;45.22;;;4.30;;
78346;SDS011;67803;41.330;69.282;2023-03-01T06:36:29;27.85;;;4.25;;
78346;SDS011;67803;41.330;69.282;2023-03-01T06:39:00;27.67;;;4.65;;
78346;SDS011;67803;41.330;69.282;2023-03-01T06:41:31;23.23;;;3.47;;
78346;SDS011;67803;41.330;69.282;2023-03-01T06:44:01;43.60;;;5.00;;
78346;SDS011;67803;41.330;69.282;2023-03-01T06:46:32;25.88;;;3.80;;
78346;SDS011;67803;41.330;69.282;2023-03-01T06:49:03;30.42;;;4.03;;
78346;SDS011;67803;41.330;69.282;2023-03-01T06:51:37;30.13;;;4.68;;
78346;SDS011;67803;41.330;69.282;2023-03-01T06:54:08;19.42;;;3.40;;
78346;SDS011;67803;41.330;69.282;2023-03-01T06:56:38;20.33;;;3.20;;
78346;SDS011;67803;41.330;69.282;2023-03-01T06:59:09;16.92;;;3.40;;
78346;SDS011;67803;41.330;69.282;2023-03-01T07:01:41;16.00;;;2.95;;
78346;SDS011;67803;41.330;69.282;2023-03-01T07:04:12;19.45;;;2.97;;
78346;SDS011;67803;41.330;69.282;2023-03-01T07:06:42;21.65;;;3.17;;
78346;SDS011;67803;41.330;69.282;2023-03-01T07:09:12;21.45;;;3.88;;
78346;SDS011;67803;41.330;69.282;2023-03-01T07:11:43;28.75;;;3.58;;
78346;SDS011;67803;41.330;69.282;2023-03-01T07:14:13;14.38;;;2.88;;
78346;SDS011;67803;41.330;69.282;2023-03-01T07:16:44;23.20;;;4.07;;
78346;SDS011;67803;41.330;69.282;2023-03-01T07:19:14;21.85;;;3.63;;
78346;SDS011;67803;41.330;69.282;2023-03-01T07:21:45;26.92;;;4.00;;
78346;SDS011;67803;41.330;69.282;2023-03-01T07:24:15;32.47;;;4.60;;
78346;SDS011;67803;41.330;69.282;2023-03-01T07:26:49;34.75;;;4.93;;
78346;SDS011;67803;41.330;69.282;2023-03-01T07:29:20;26.75;;;4.70;;
78346;SDS011;67803;41.330;69.282;2023-03-01T07:31:50;28.40;;;4.22;;
78346;SDS011;67803;41.330;69.282;2023-03-01T07:34:21;20.75;;;3.97;;
78346;SDS011;67803;41.330;69.282;2023-03-01T07:36:51;24.73;;;4.70;;
78346;SDS011;67803;41.330;69.282;2023-03-01T07:39:22;24.02;;;4.13;;
78346;SDS011;67803;41.330;69.282;2023-03-01T07:41:55;30.23;;;4.68;;
78346;SDS011;67803;41.330;69.282;2023-03-01T07:44:26;25.13;;;5.35;;
78346;SDS011;67803;41.330;69.282;2023-03-01T07:46:56;25.88;;;4.68;;
78346;SDS011;67803;41.330;69.282;2023-03-01T07:49:28;28.65;;;5.10;;
78346;SDS011;67803;41.330;69.282;2023-03-01T07:51:58;16.52;;;4.10;;
78346;SDS011;67803;41.330;69.282;2023-03-01T07:54:29;23.92;;;4.40;;
78346;SDS011;67803;41.330;69.282;2023-03-01T07:56:59;20.77;;;4.40;;
78346;SDS011;67803;41.330;69.282;2023-03-01T07:59:30;19.90;;;4.07;;
78346;SDS011;67803;41.330;69.282;2023-03-01T08:02:00;25.40;;;4.72;;
78346;SDS011;67803;41.330;69.282;2023-03-01T08:04:31;22.05;;;4.47;;
78346;SDS011;67803;41.330;69.282;2023-03-01T08:07:04;22.35;;;4.35;;
78346;SDS011;67803;41.330;69.282;2023-03-01T08:09:35;27.00;;;4.65;;
78346;SDS011;67803;41.330;69.282;2023-03-01T08:12:07;16.23;;;4.57;;
78346;SDS011;67803;41.330;69.282;2023-03-01T08:14:37;23.33;;;4.50;;
78346;SDS011;67803;41.330;69.282;2023-03-01T08:17:08;25.80;;;4.28;;
78346;SDS011;67803;41.330;69.282;2023-03-01T08:19:38;21.33;;;4.10;;
78346;SDS011;67803;41.330;69.282;2023-03-01T08:22:09;17.08;;;4.13;;
78346;SDS011;67803;41.330;69.282;2023-03-01T08:24:39;20.55;;;3.92;;
78346;SDS011;67803;41.330;69.282;2023-03-01T08:27:10;19.05;;;4.75;;
78346;SDS011;67803;41.330;69.282;2023-03-01T08:29:42;15.55;;;4.10;;
78346;SDS011;67803;41.330;69.282;2023-03-01T08:32:12;22.08;;;4.97;;
78346;SDS011;67803;41.330;69.282;2023-03-01T08:34:45;22.90;;;3.70;;
78346;SDS011;67803;41.330;69.282;2023-03-01T08:37:16;21.15;;;4.05;;
78346;SDS011;67803;41.330;69.282;2023-03-01T08:39:46;19.55;;;3.75;;
78346;SDS011;67803;41.330;69.282;2023-03-01T08:42:17;18.42;;;3.80;;
78346;SDS011;67803;41.330;69.282;2023-03-01T08:44:47;27.60;;;4.80;;
78346;SDS011;67803;41.330;69.282;2023-03-01T08:47:18;14.18;;;3.60;;
78346;SDS011;67803;41.330;69.282;2023-03-01T08:49:49;17.33;;;3.80;;
78346;SDS011;67803;41.330;69.282;2023-03-01T08:52:20;17.30;;;4.20;;
78346;SDS011;67803;41.330;69.282;2023-03-01T08:54:52;23.58;;;5.10;;
78346;SDS011;67803;41.330;69.282;2023-03-01T08:57:23;21.13;;;5.32;;
78346;SDS011;67803;41.330;69.282;2023-03-01T08:59:53;23.73;;;4.85;;
78346;SDS011;67803;41.330;69.282;2023-03-01T09:02:26;25.95;;;5.50;;
78346;SDS011;67803;41.330;69.282;2023-03-01T09:04:56;23.13;;;5.28;;
78346;SDS011;67803;41.330;69.282;2023-03-01T09:07:27;22.45;;;4.97;;
78346;SDS011;67803;41.330;69.282;2023-03-01T09:10:00;15.40;;;4.80;;
78346;SDS011;67803;41.330;69.282;2023-03-01T09:12:30;16.63;;;5.80;;
78346;SDS011;67803;41.330;69.282;2023-03-01T09:15:01;16.80;;;5.13;;
78346;SDS011;67803;41.330;69.282;2023-03-01T09:17:31;13.02;;;4.32;;
78346;SDS011;67803;41.330;69.282;2023-03-01T09:20:02;12.63;;;3.65;;
78346;SDS011;67803;41.330;69.282;2023-03-01T09:22:35;16.40;;;3.97;;
78346;SDS011;67803;41.330;69.282;2023-03-01T09:25:06;29.88;;;4.80;;
78346;SDS011;67803;41.330;69.282;2023-03-01T09:27:36;15.75;;;3.80;;
78346;SDS011;67803;41.330;69.282;2023-03-01T09:30:07;14.63;;;4.18;;
78346;SDS011;67803;41.330;69.282;2023-03-01T09:32:37;13.75;;;3.78;;
78346;SDS011;67803;41.330;69.282;2023-03-01T09:35:12;11.77;;;4.03;;
78346;SDS011;67803;41.330;69.282;2023-03-01T09:37:43;11.88;;;4.47;;
78346;SDS011;67803;41.330;69.282;2023-03-01T09:40:19;12.10;;;4.38;;
78346;SDS011;67803;41.330;69.282;2023-03-01T09:42:55;14.20;;;4.25;;
78346;SDS011;67803;41.330;69.282;2023-03-01T09:45:34;16.60;;;4.30;;
78346;SDS011;67803;41.330;69.282;2023-03-01T09:48:06;14.30;;;4.43;;
78346;SDS011;67803;41.330;69.282;2023-03-01T09:50:40;21.48;;;7.70;;
78346;SDS011;67803;41.330;69.282;2023-03-01T09:53:15;15.32;;;6.38;;
78346;SDS011;67803;41.330;69.282;2023-03-01T09:56:00;15.50;;;6.30;;
78346;SDS011;67803;41.330;69.282;2023-03-01T10:01:28;21.75;;;5.97;;
78346;SDS011;67803;41.330;69.282;2023-03-01T10:06:34;12.20;;;5.97;;
78346;SDS011;67803;41.330;69.282;2023-03-01T10:09:05;16.27;;;6.53;;
78346;SDS011;67803;41.330;69.282;2023-03-01T10:11:38;16.98;;;6.50;;
78346;SDS011;67803;41.330;69.282;2023-03-01T10:14:28;18.58;;;5.90;;
78346;SDS011;67803;41.330;69.282;2023-03-01T10:17:06;21.10;;;7.22;;
78346;SDS011;67803;41.330;69.282;2023-03-01T10:19:40;18.10;;;7.82;;
78346;SDS011;67803;41.330;69.282;2023-03-01T10:24:44;20.85;;;9.18;;
78346;SDS011;67803;41.330;69.282;2023-03-01T10:27:23;15.20;;;7.57;;
78346;SDS011;67803;41.330;69.282;2023-03-01T10:29:58;19.60;;;6.80;;
78346;SDS011;67803;41.330;69.282;2023-03-01T10:32:32;22.10;;;8.15;;
78346;SDS011;67803;41.330;69.282;2023-03-01T10:38:10;17.95;;;8.02;;
78346;SDS011;67803;41.330;69.282;2023-03-01T10:43:24;21.58;;;8.43;;
78346;SDS011;67803;41.330;69.282;2023-03-01T10:45:55;23.08;;;9.18;;
78346;SDS011;67803;41.330;69.282;2023-03-01T10:48:26;16.02;;;8.27;;
78346;SDS011;67803;41.330;69.282;2023-03-01T10:53:41;15.95;;;8.23;;
78346;SDS011;67803;41.330;69.282;2023-03-01T10:56:13;16.48;;;8.95;;
78346;SDS011;67803;41.330;69.282;2023-03-01T10:58:57;23.27;;;10.02;;
78346;SDS011;67803;41.330;69.282;2023-03-01T11:01:32;22.70;;;10.38;;
78346;SDS011;67803;41.330;69.282;2023-03-01T11:04:10;20.67;;;10.00;;
78346;SDS011;67803;41.330;69.282;2023-03-01T11:06:41;19.60;;;10.43;;
78346;SDS011;67803;41.330;69.282;2023-03-01T11:09:17;20.35;;;10.70;;
78346;SDS011;67803;41.330;69.282;2023-03-01T11:11:51;19.23;;;10.13;;
78346;SDS011;67803;41.330;69.282;2023-03-01T11:17:05;18.57;;;10.33;;
78346;SDS011;67803;41.330;69.282;2023-03-01T11:19:42;20.08;;;10.35;;
78346;SDS011;67803;41.330;69.282;2023-03-01T11:24:47;18.50;;;9.85;;
78346;SDS011;67803;41.330;69.282;2023-03-01T11:30:34;16.15;;;9.35;;
78346;SDS011;67803;41.330;69.282;2023-03-01T11:32:40;23.35;;;9.82;;
78346;SDS011;67803;41.330;69.282;2023-03-01T11:35:14;18.58;;;9.68;;
78346;SDS011;67803;41.330;69.282;2023-03-01T11:40:21;20.10;;;10.10;;
78346;SDS011;67803;41.330;69.282;2023-03-01T11:45:24;22.60;;;10.77;;
78346;SDS011;67803;41.330;69.282;2023-03-01T11:48:07;20.23;;;11.25;;
78346;SDS011;67803;41.330;69.282;2023-03-01T11:50:49;22.23;;;11.60;;
78346;SDS011;67803;41.330;69.282;2023-03-01T11:56:13;24.27;;;12.32;;
78346;SDS011;67803;41.330;69.282;2023-03-01T12:01:59;36.40;;;12.82;;
78346;SDS011;67803;41.330;69.282;2023-03-01T12:07:08;23.77;;;12.13;;
78346;SDS011;67803;41.330;69.282;2023-03-01T12:09:49;23.83;;;12.70;;
78346;SDS011;67803;41.330;69.282;2023-03-01T12:17:39;21.55;;;11.10;;
78346;SDS011;67803;41.330;69.282;2023-03-01T12:20:26;25.08;;;10.48;;
78346;SDS011;67803;41.330;69.282;2023-03-01T12:25:38;23.48;;;9.95;;
78346;SDS011;67803;41.330;69.282;2023-03-01T12:36:24;16.55;;;7.80;;
78346;SDS011;67803;41.330;69.282;2023-03-01T12:46:52;12.75;;;5.68;;
78346;SDS011;67803;41.330;69.282;2023-03-01T12:54:55;12.90;;;5.05;;
78346;SDS011;67803;41.330;69.282;2023-03-01T12:57:49;11.57;;;5.20;;
78346;SDS011;67803;41.330;69.282;2023-03-01T13:00:22;14.00;;;5.50;;
78346;SDS011;67803;41.330;69.282;2023-03-01T13:03:11;11.55;;;5.28;;
78346;SDS011;67803;41.330;69.282;2023-03-01T13:05:55;13.20;;;6.05;;
78346;SDS011;67803;41.330;69.282;2023-03-01T13:08:43;17.25;;;5.10;;
78346;SDS011;67803;41.330;69.282;2023-03-01T13:11:20;19.42;;;5.85;;
78346;SDS011;67803;41.330;69.282;2023-03-01T13:13:51;12.40;;;5.13;;
78346;SDS011;67803;41.330;69.282;2023-03-01T13:21:37;28.92;;;7.00;;
78346;SDS011;67803;41.330;69.282;2023-03-01T13:29:46;17.55;;;5.60;;
78346;SDS011;67803;41.330;69.282;2023-03-01T13:32:27;30.85;;;6.90;;
78346;SDS011;67803;41.330;69.282;2023-03-01T13:37:36;46.23;;;7.33;;
78346;SDS011;67803;41.330;69.282;2023-03-01T13:42:48;23.13;;;6.07;;
78346;SDS011;67803;41.330;69.282;2023-03-01T13:48:03;42.60;;;7.20;;
78346;SDS011;67803;41.330;69.282;2023-03-01T13:50:42;32.70;;;6.30;;
78346;SDS011;67803;41.330;69.282;2023-03-01T13:53:21;22.25;;;6.50;;
78346;SDS011;67803;41.330;69.282;2023-03-01T13:55:58;40.45;;;8.00;;
78346;SDS011;67803;41.330;69.282;2023-03-01T13:58:31;25.70;;;7.32;;
78346;SDS011;67803;41.330;69.282;2023-03-01T14:01:03;22.13;;;6.50;;
78346;SDS011;67803;41.330;69.282;2023-03-01T14:03:39;30.85;;;7.18;;
78346;SDS011;67803;41.330;69.282;2023-03-01T14:06:14;27.83;;;7.65;;
78346;SDS011;67803;41.330;69.282;2023-03-01T14:08:49;38.78;;;8.20;;
78346;SDS011;67803;41.330;69.282;2023-03-01T14:19:24;36.95;;;7.80;;
78346;SDS011;67803;41.330;69.282;2023-03-01T14:24:47;30.98;;;8.75;;
78346;SDS011;67803;41.330;69.282;2023-03-01T14:27:19;24.75;;;8.00;;
78346;SDS011;67803;41.330;69.282;2023-03-01T14:29:57;31.67;;;7.82;;
78346;SDS011;67803;41.330;69.282;2023-03-01T14:32:29;28.90;;;7.70;;
78346;SDS011;67803;41.330;69.282;2023-03-01T14:35:00;24.48;;;7.88;;
78346;SDS011;67803;41.330;69.282;2023-03-01T14:37:34;33.33;;;7.47;;
78346;SDS011;67803;41.330;69.282;2023-03-01T14:40:04;26.83;;;7.32;;
78346;SDS011;67803;41.330;69.282;2023-03-01T14:42:35;25.77;;;7.97;;
78346;SDS011;67803;41.330;69.282;2023-03-01T14:45:06;31.88;;;7.95;;
78346;SDS011;67803;41.330;69.282;2023-03-01T14:47:37;24.40;;;8.82;;
78346;SDS011;67803;41.330;69.282;2023-03-01T14:50:15;42.05;;;10.18;;
78346;SDS011;67803;41.330;69.282;2023-03-01T14:52:48;49.28;;;10.55;;
78346;SDS011;67803;41.330;69.282;2023-03-01T14:55:40;35.63;;;9.88;;
78346;SDS011;67803;41.330;69.282;2023-03-01T14:58:13;34.15;;;9.90;;
78346;SDS011;67803;41.330;69.282;2023-03-01T15:00:57;33.00;;;9.55;;
78346;SDS011;67803;41.330;69.282;2023-03-01T15:03:36;26.58;;;8.50;;
78346;SDS011;67803;41.330;69.282;2023-03-01T15:08:41;28.47;;;8.87;;
78346;SDS011;67803;41.330;69.282;2023-03-01T15:11:17;30.88;;;9.13;;
78346;SDS011;67803;41.330;69.282;2023-03-01T15:13:48;48.30;;;10.70;;
78346;SDS011;67803;41.330;69.282;2023-03-01T15:16:21;32.85;;;9.45;;
78346;SDS011;67803;41.330;69.282;2023-03-01T15:18:54;32.85;;;11.55;;
78346;SDS011;67803;41.330;69.282;2023-03-01T15:21:26;39.05;;;12.10;;
78346;SDS011;67803;41.330;69.282;2023-03-01T15:26:53;32.28;;;10.90;;
78346;SDS011;67803;41.330;69.282;2023-03-01T15:29:25;75.70;;;13.55;;
78346;SDS011;67803;41.330;69.282;2023-03-01T15:32:24;42.10;;;13.20;;
78346;SDS011;67803;41.330;69.282;2023-03-01T15:34:50;48.15;;;13.68;;
78346;SDS011;67803;41.330;69.282;2023-03-01T15:40:29;47.17;;;15.82;;
78346;SDS011;67803;41.330;69.282;2023-03-01T15:43:04;44.28;;;13.20;;
78346;SDS011;67803;41.330;69.282;2023-03-01T15:45:34;43.25;;;15.10;;
78346;SDS011;67803;41.330;69.282;2023-03-01T15:48:14;39.25;;;14.82;;
78346;SDS011;67803;41.330;69.282;2023-03-01T15:50:53;40.05;;;10.50;;
78346;SDS011;67803;41.330;69.282;2023-03-01T15:53:24;42.63;;;13.02;;
78346;SDS011;67803;41.330;69.282;2023-03-01T15:55:56;27.63;;;10.43;;
78346;SDS011;67803;41.330;69.282;2023-03-01T15:58:26;29.17;;;10.30;;
78346;SDS011;67803;41.330;69.282;2023-03-01T16:00:57;40.55;;;11.25;;
78346;SDS011;67803;41.330;69.282;2023-03-01T16:03:29;32.63;;;10.70;;
78346;SDS011;67803;41.330;69.282;2023-03-01T16:05:59;28.23;;;8.73;;
78346;SDS011;67803;41.330;69.282;2023-03-01T16:08:31;28.27;;;7.90;;
78346;SDS011;67803;41.330;69.282;2023-03-01T16:11:02;24.80;;;8.37;;
78346;SDS011;67803;41.330;69.282;2023-03-01T16:13:34;27.75;;;7.10;;
78346;SDS011;67803;41.330;69.282;2023-03-01T16:16:05;28.55;;;7.68;;
78346;SDS011;67803;41.330;69.282;2023-03-01T16:18:35;24.10;;;7.78;;
78346;SDS011;67803;41.330;69.282;2023-03-01T16:21:06;28.33;;;8.45;;
78346;SDS011;67803;41.330;69.282;2023-03-01T16:23:36;30.52;;;8.27;;
78346;SDS011;67803;41.330;69.282;2023-03-01T16:26:07;28.77;;;7.95;;
78346;SDS011;67803;41.330;69.282;2023-03-01T16:28:37;21.05;;;7.63;;
78346;SDS011;67803;41.330;69.282;2023-03-01T16:31:08;21.30;;;6.05;;
78346;SDS011;67803;41.330;69.282;2023-03-01T16:33:39;17.45;;;6.07;;
78346;SDS011;67803;41.330;69.282;2023-03-01T16:36:10;18.90;;;6.30;;
78346;SDS011;67803;41.330;69.282;2023-03-01T16:38:41;15.95;;;6.00;;
78346;SDS011;67803;41.330;69.282;2023-03-01T16:41:19;26.70;;;10.23;;
78346;SDS011;67803;41.330;69.282;2023-03-01T16:43:50;14.68;;;7.05;;
78346;SDS011;67803;41.330;69.282;2023-03-01T16:46:29;20.63;;;6.97;;
78346;SDS011;67803;41.330;69.282;2023-03-01T16:49:00;19.55;;;5.57;;
78346;SDS011;67803;41.330;69.282;2023-03-01T16:51:30;21.80;;;6.97;;